LNI724 WARR-WAFF
Flight info
| Callsign | LNI724 |
|---|---|
| Flight time | 1h 42m |
| Altitude | 33000 |
| Route | RAMPY DCT UDIMU DCT ISRUL DCT KALKU |
| Aircraft | B738/M-SDE2E3FGHIRWXY/LB1 |
Departure
| Time | 2026-04-30 04:17 |
|---|---|
| Airport | Juanda International Airport (WARR) |
Arrival
| Time | 2026-04-30 05:59 |
|---|---|
| Airport | Mutiara - SIS Al-Jufrie Airport (WAFF) |
| Time | Latitude | Longitude | Altitude | Speed | Heading |
|---|---|---|---|---|---|
| 2026-04-30 04:06 | -7.37556 | 112.79239 | 8 ft | 3 kts | 9° |
| 2026-04-30 04:06 | -7.37574 | 112.79236 | 10 ft | 3 kts | 9° |
| 2026-04-30 04:07 | -7.37593 | 112.79233 | 9 ft | 3 kts | 9° |
| 2026-04-30 04:07 | -7.37611 | 112.79230 | 10 ft | 3 kts | 9° |
| 2026-04-30 04:07 | -7.37629 | 112.79227 | 9 ft | 2 kts | 9° |
| 2026-04-30 04:08 | -7.37630 | 112.79227 | 8 ft | 0 kts | 9° |
| 2026-04-30 04:10 | -7.37628 | 112.79227 | 8 ft | 1 kts | 6° |
| 2026-04-30 04:10 | -7.37619 | 112.79213 | 9 ft | 3 kts | 272° |
| 2026-04-30 04:10 | -7.37629 | 112.79179 | 8 ft | 7 kts | 265° |
| 2026-04-30 04:10 | -7.37631 | 112.79115 | 8 ft | 10 kts | 235° |
| 2026-04-30 04:11 | -7.37699 | 112.79093 | 8 ft | 11 kts | 186° |
| 2026-04-30 04:11 | -7.37781 | 112.79078 | 8 ft | 14 kts | 190° |
| 2026-04-30 04:11 | -7.37855 | 112.79032 | 8 ft | 13 kts | 252° |
| 2026-04-30 04:11 | -7.37849 | 112.78941 | 10 ft | 14 kts | 280° |
| 2026-04-30 04:12 | -7.37831 | 112.78833 | 8 ft | 17 kts | 278° |
| 2026-04-30 04:12 | -7.37810 | 112.78700 | 8 ft | 20 kts | 279° |
| 2026-04-30 04:12 | -7.37788 | 112.78563 | 8 ft | 20 kts | 279° |
| 2026-04-30 04:12 | -7.37768 | 112.78441 | 8 ft | 19 kts | 279° |
| 2026-04-30 04:13 | -7.37748 | 112.78313 | 10 ft | 18 kts | 279° |
| 2026-04-30 04:13 | -7.37728 | 112.78189 | 8 ft | 18 kts | 279° |
| 2026-04-30 04:14 | -7.37708 | 112.78069 | 8 ft | 17 kts | 279° |
| 2026-04-30 04:14 | -7.37690 | 112.77953 | 10 ft | 16 kts | 279° |
| 2026-04-30 04:14 | -7.37672 | 112.77843 | 8 ft | 16 kts | 279° |
| 2026-04-30 04:14 | -7.37654 | 112.77735 | 8 ft | 15 kts | 279° |
| 2026-04-30 04:15 | -7.37637 | 112.77632 | 8 ft | 15 kts | 279° |
| 2026-04-30 04:15 | -7.37621 | 112.77533 | 8 ft | 14 kts | 279° |
| 2026-04-30 04:15 | -7.37607 | 112.77442 | 8 ft | 11 kts | 273° |
| 2026-04-30 04:15 | -7.37648 | 112.77386 | 7 ft | 10 kts | 201° |
| 2026-04-30 04:16 | -7.37718 | 112.77373 | 7 ft | 10 kts | 189° |
| 2026-04-30 04:16 | -7.37774 | 112.77402 | 8 ft | 10 kts | 111° |
| 2026-04-30 04:16 | -7.37791 | 112.77507 | 8 ft | 33 kts | 97° |
| 2026-04-30 04:16 | -7.37874 | 112.78014 | 8 ft | 112 kts | 99° |
| 2026-04-30 04:17 | -7.38027 | 112.79017 | 58 ft | 172 kts | 97° |
| 2026-04-30 04:17 | -7.38210 | 112.80244 | 858 ft | 180 kts | 98° |
| 2026-04-30 04:17 | -7.38399 | 112.81510 | 1807 ft | 181 kts | 99° |
| 2026-04-30 04:17 | -7.38616 | 112.82834 | 2365 ft | 206 kts | 99° |
| 2026-04-30 04:18 | -7.38867 | 112.84342 | 2584 ft | 230 kts | 99° |
| 2026-04-30 04:18 | -7.39093 | 112.85993 | 2888 ft | 250 kts | 89° |
| 2026-04-30 04:18 | -7.38487 | 112.87666 | 3335 ft | 266 kts | 50° |
| 2026-04-30 04:18 | -7.36983 | 112.88741 | 4111 ft | 270 kts | 25° |
| 2026-04-30 04:19 | -7.35240 | 112.89479 | 4870 ft | 274 kts | 22° |
| 2026-04-30 04:19 | -7.33450 | 112.90191 | 5638 ft | 278 kts | 22° |
| 2026-04-30 04:19 | -7.31643 | 112.90903 | 6411 ft | 281 kts | 22° |
| 2026-04-30 04:19 | -7.29817 | 112.91627 | 7137 ft | 283 kts | 22° |
| 2026-04-30 04:20 | -7.27977 | 112.92364 | 7889 ft | 285 kts | 23° |
| 2026-04-30 04:20 | -7.26129 | 112.93110 | 8625 ft | 288 kts | 23° |
| 2026-04-30 04:20 | -7.24257 | 112.93870 | 9351 ft | 291 kts | 23° |
| 2026-04-30 04:20 | -7.22372 | 112.94638 | 10060 ft | 294 kts | 24° |
| 2026-04-30 04:21 | -7.20438 | 112.95430 | 10437 ft | 310 kts | 24° |
| 2026-04-30 04:21 | -7.18366 | 112.96281 | 10590 ft | 332 kts | 24° |
| 2026-04-30 04:21 | -7.16161 | 112.97187 | 10746 ft | 352 kts | 23° |
| 2026-04-30 04:21 | -7.13849 | 112.98137 | 11104 ft | 363 kts | 23° |
| 2026-04-30 04:22 | -7.11498 | 112.99102 | 11662 ft | 367 kts | 23° |
| 2026-04-30 04:22 | -7.09125 | 113.00076 | 12268 ft | 369 kts | 23° |
| 2026-04-30 04:22 | -7.06735 | 113.01057 | 12860 ft | 373 kts | 23° |
| 2026-04-30 04:22 | -7.04324 | 113.02047 | 13424 ft | 376 kts | 23° |
| 2026-04-30 04:23 | -7.01887 | 113.03049 | 13963 ft | 379 kts | 24° |
| 2026-04-30 04:23 | -6.99436 | 113.04056 | 14475 ft | 382 kts | 24° |
| 2026-04-30 04:23 | -6.96967 | 113.05071 | 14993 ft | 384 kts | 24° |
| 2026-04-30 04:23 | -6.94484 | 113.06091 | 15505 ft | 387 kts | 24° |
| 2026-04-30 04:24 | -6.91986 | 113.07117 | 16001 ft | 389 kts | 24° |
| 2026-04-30 04:24 | -6.89468 | 113.08152 | 16479 ft | 392 kts | 24° |
| 2026-04-30 04:24 | -6.86929 | 113.09195 | 16962 ft | 395 kts | 24° |
| 2026-04-30 04:24 | -6.84377 | 113.10242 | 17430 ft | 398 kts | 24° |
| 2026-04-30 04:25 | -6.81840 | 113.11284 | 17881 ft | 400 kts | 24° |
| 2026-04-30 04:25 | -6.79255 | 113.12346 | 18307 ft | 403 kts | 24° |
| 2026-04-30 04:25 | -6.76649 | 113.13416 | 18703 ft | 406 kts | 24° |
| 2026-04-30 04:25 | -6.73996 | 113.14505 | 19089 ft | 408 kts | 23° |
| 2026-04-30 04:26 | -6.71392 | 113.15574 | 19467 ft | 410 kts | 23° |
| 2026-04-30 04:26 | -6.68741 | 113.16662 | 19845 ft | 413 kts | 23° |
| 2026-04-30 04:26 | -6.66075 | 113.17756 | 20202 ft | 415 kts | 23° |
| 2026-04-30 04:26 | -6.63396 | 113.18856 | 20581 ft | 417 kts | 23° |
| 2026-04-30 04:27 | -6.60701 | 113.19961 | 20944 ft | 419 kts | 23° |
| 2026-04-30 04:27 | -6.57991 | 113.21073 | 21301 ft | 422 kts | 23° |
| 2026-04-30 04:27 | -6.55269 | 113.22190 | 21656 ft | 424 kts | 23° |
| 2026-04-30 04:27 | -6.52530 | 113.23313 | 21986 ft | 426 kts | 23° |
| 2026-04-30 04:28 | -6.49775 | 113.24443 | 22328 ft | 428 kts | 23° |
| 2026-04-30 04:28 | -6.47011 | 113.25577 | 22663 ft | 430 kts | 23° |
| 2026-04-30 04:28 | -6.44230 | 113.26717 | 22972 ft | 433 kts | 23° |
| 2026-04-30 04:28 | -6.41433 | 113.27864 | 23279 ft | 435 kts | 23° |
| 2026-04-30 04:29 | -6.38619 | 113.29018 | 23559 ft | 438 kts | 23° |
| 2026-04-30 04:29 | -6.35795 | 113.30175 | 23825 ft | 439 kts | 23° |
| 2026-04-30 04:29 | -6.32962 | 113.31337 | 24088 ft | 441 kts | 23° |
| 2026-04-30 04:29 | -6.30120 | 113.32501 | 24359 ft | 442 kts | 23° |
| 2026-04-30 04:30 | -6.27283 | 113.33699 | 24610 ft | 443 kts | 27° |
| 2026-04-30 04:30 | -6.24610 | 113.35239 | 24855 ft | 443 kts | 35° |
| 2026-04-30 04:30 | -6.22204 | 113.37173 | 25113 ft | 443 kts | 44° |
| 2026-04-30 04:30 | -6.19991 | 113.39332 | 25383 ft | 444 kts | 45° |
| 2026-04-30 04:31 | -6.17795 | 113.41524 | 25605 ft | 446 kts | 45° |
| 2026-04-30 04:31 | -6.15592 | 113.43732 | 25811 ft | 448 kts | 45° |
| 2026-04-30 04:31 | -6.13375 | 113.45944 | 26045 ft | 450 kts | 45° |
| 2026-04-30 04:31 | -6.11143 | 113.48157 | 26276 ft | 451 kts | 45° |
| 2026-04-30 04:32 | -6.08930 | 113.50340 | 26499 ft | 453 kts | 45° |
| 2026-04-30 04:32 | -6.06644 | 113.52587 | 26732 ft | 454 kts | 45° |
| 2026-04-30 04:32 | -6.04380 | 113.54806 | 26949 ft | 456 kts | 45° |
| 2026-04-30 04:32 | -6.02108 | 113.57031 | 27165 ft | 457 kts | 45° |
| 2026-04-30 04:33 | -5.99828 | 113.59263 | 27371 ft | 459 kts | 45° |
| 2026-04-30 04:33 | -5.97539 | 113.61503 | 27586 ft | 460 kts | 45° |
| 2026-04-30 04:33 | -5.95276 | 113.63718 | 27775 ft | 461 kts | 45° |
| 2026-04-30 04:33 | -5.92972 | 113.65973 | 27957 ft | 463 kts | 45° |
| 2026-04-30 04:34 | -5.90660 | 113.68236 | 28150 ft | 465 kts | 45° |
| 2026-04-30 04:34 | -5.88343 | 113.70504 | 28374 ft | 465 kts | 45° |
| 2026-04-30 04:34 | -5.86026 | 113.72771 | 28657 ft | 464 kts | 45° |
| 2026-04-30 04:34 | -5.83717 | 113.75031 | 28976 ft | 463 kts | 45° |
| 2026-04-30 04:35 | -5.81413 | 113.77285 | 29265 ft | 462 kts | 45° |
| 2026-04-30 04:35 | -5.79109 | 113.79538 | 29541 ft | 462 kts | 45° |
| 2026-04-30 04:35 | -5.76808 | 113.81789 | 29814 ft | 462 kts | 45° |
| 2026-04-30 04:35 | -5.74509 | 113.84038 | 30084 ft | 461 kts | 45° |
| 2026-04-30 04:36 | -5.72212 | 113.86284 | 30338 ft | 460 kts | 45° |
| 2026-04-30 04:36 | -5.69923 | 113.88523 | 30597 ft | 459 kts | 45° |
| 2026-04-30 04:36 | -5.67632 | 113.90763 | 30836 ft | 459 kts | 45° |
| 2026-04-30 04:36 | -5.65345 | 113.92999 | 31083 ft | 459 kts | 45° |
| 2026-04-30 04:37 | -5.63062 | 113.95230 | 31347 ft | 458 kts | 45° |
| 2026-04-30 04:37 | -5.60787 | 113.97454 | 31626 ft | 456 kts | 45° |
| 2026-04-30 04:37 | -5.58513 | 113.99676 | 31870 ft | 456 kts | 45° |
| 2026-04-30 04:37 | -5.56239 | 114.01898 | 32088 ft | 456 kts | 45° |
| 2026-04-30 04:38 | -5.53965 | 114.04120 | 32343 ft | 456 kts | 45° |
| 2026-04-30 04:38 | -5.51695 | 114.06338 | 32610 ft | 455 kts | 45° |
| 2026-04-30 04:38 | -5.49429 | 114.08551 | 32856 ft | 454 kts | 45° |
| 2026-04-30 04:39 | -5.44877 | 114.12997 | 32904 ft | 457 kts | 45° |
| 2026-04-30 04:39 | -5.40331 | 114.17436 | 32899 ft | 454 kts | 45° |
| 2026-04-30 04:40 | -5.35811 | 114.21848 | 32902 ft | 452 kts | 45° |
| 2026-04-30 04:40 | -5.31311 | 114.26241 | 32907 ft | 451 kts | 45° |
| 2026-04-30 04:41 | -5.26822 | 114.30622 | 32906 ft | 450 kts | 45° |
| 2026-04-30 04:41 | -5.22329 | 114.35005 | 32906 ft | 451 kts | 45° |
| 2026-04-30 04:42 | -5.17828 | 114.39396 | 32903 ft | 452 kts | 45° |
| 2026-04-30 04:42 | -5.13310 | 114.43802 | 32908 ft | 454 kts | 45° |
| 2026-04-30 04:43 | -5.08781 | 114.48219 | 32904 ft | 455 kts | 45° |
| 2026-04-30 04:43 | -5.04233 | 114.52653 | 32904 ft | 456 kts | 45° |
| 2026-04-30 04:44 | -4.99678 | 114.57094 | 32901 ft | 457 kts | 45° |
| 2026-04-30 04:44 | -4.95382 | 114.61775 | 32893 ft | 456 kts | 55° |
| 2026-04-30 04:45 | -4.91801 | 114.67021 | 32898 ft | 456 kts | 57° |
| 2026-04-30 04:45 | -4.88271 | 114.72297 | 32897 ft | 455 kts | 56° |
| 2026-04-30 04:46 | -4.84718 | 114.77549 | 32894 ft | 455 kts | 56° |
| 2026-04-30 04:46 | -4.81150 | 114.82775 | 32893 ft | 454 kts | 56° |
| 2026-04-30 04:47 | -4.77608 | 114.87948 | 32895 ft | 452 kts | 56° |
| 2026-04-30 04:47 | -4.74050 | 114.93142 | 32894 ft | 451 kts | 56° |
| 2026-04-30 04:48 | -4.70503 | 114.98321 | 32895 ft | 450 kts | 56° |
| 2026-04-30 04:48 | -4.66964 | 115.03489 | 32876 ft | 449 kts | 55° |
| 2026-04-30 04:49 | -4.63425 | 115.08654 | 32889 ft | 449 kts | 55° |
| 2026-04-30 04:49 | -4.59886 | 115.13820 | 32895 ft | 450 kts | 55° |
| 2026-04-30 04:50 | -4.56336 | 115.18999 | 32893 ft | 451 kts | 55° |
| 2026-04-30 04:50 | -4.52776 | 115.24194 | 32888 ft | 453 kts | 55° |
| 2026-04-30 04:51 | -4.49205 | 115.29402 | 32892 ft | 454 kts | 55° |
| 2026-04-30 04:51 | -4.45620 | 115.34630 | 32892 ft | 456 kts | 55° |
| 2026-04-30 04:52 | -4.42025 | 115.39872 | 32890 ft | 457 kts | 55° |
| 2026-04-30 04:52 | -4.38424 | 115.45121 | 32888 ft | 457 kts | 55° |
| 2026-04-30 04:53 | -4.34817 | 115.50378 | 32884 ft | 458 kts | 55° |
| 2026-04-30 04:53 | -4.31207 | 115.55638 | 32888 ft | 458 kts | 55° |
| 2026-04-30 04:54 | -4.27598 | 115.60897 | 32886 ft | 458 kts | 55° |
| 2026-04-30 04:54 | -4.23994 | 115.66146 | 32888 ft | 457 kts | 55° |
| 2026-04-30 04:55 | -4.20391 | 115.71394 | 32885 ft | 457 kts | 55° |
| 2026-04-30 04:55 | -4.16797 | 115.76628 | 32887 ft | 456 kts | 55° |
| 2026-04-30 04:56 | -4.13203 | 115.81858 | 32889 ft | 455 kts | 55° |
| 2026-04-30 04:56 | -4.09617 | 115.87078 | 32887 ft | 455 kts | 55° |
| 2026-04-30 04:57 | -4.06034 | 115.92293 | 32889 ft | 454 kts | 55° |
| 2026-04-30 04:57 | -4.02454 | 115.97503 | 32882 ft | 454 kts | 55° |
| 2026-04-30 04:58 | -3.98875 | 116.02709 | 32883 ft | 454 kts | 55° |
| 2026-04-30 04:58 | -3.95296 | 116.07914 | 32885 ft | 454 kts | 55° |
| 2026-04-30 04:59 | -3.91714 | 116.13123 | 32886 ft | 454 kts | 55° |
| 2026-04-30 04:59 | -3.88130 | 116.18336 | 32877 ft | 455 kts | 55° |
| 2026-04-30 05:00 | -3.84566 | 116.23517 | 32880 ft | 455 kts | 55° |
| 2026-04-30 05:00 | -3.80977 | 116.28736 | 32884 ft | 455 kts | 55° |
| 2026-04-30 05:01 | -3.77334 | 116.33916 | 32875 ft | 455 kts | 50° |
| 2026-04-30 05:01 | -3.72715 | 116.38202 | 32894 ft | 454 kts | 37° |
| 2026-04-30 05:02 | -3.68468 | 116.41363 | 32884 ft | 454 kts | 36° |
| 2026-04-30 05:02 | -3.63387 | 116.45123 | 32878 ft | 454 kts | 37° |
| 2026-04-30 05:03 | -3.58326 | 116.48912 | 32882 ft | 454 kts | 37° |
| 2026-04-30 05:03 | -3.53280 | 116.52721 | 32883 ft | 454 kts | 37° |
| 2026-04-30 05:04 | -3.48236 | 116.56535 | 32878 ft | 454 kts | 37° |
| 2026-04-30 05:04 | -3.43197 | 116.60345 | 32880 ft | 454 kts | 37° |
| 2026-04-30 05:05 | -3.38154 | 116.64157 | 32884 ft | 454 kts | 37° |
| 2026-04-30 05:05 | -3.33107 | 116.67969 | 32875 ft | 454 kts | 37° |
| 2026-04-30 05:06 | -3.25573 | 116.73661 | 32877 ft | 454 kts | 37° |
| 2026-04-30 05:06 | -3.20527 | 116.77472 | 32876 ft | 455 kts | 37° |
| 2026-04-30 05:07 | -3.15479 | 116.81284 | 32877 ft | 455 kts | 37° |
| 2026-04-30 05:07 | -3.10431 | 116.85096 | 32876 ft | 455 kts | 37° |
| 2026-04-30 05:08 | -3.05379 | 116.88911 | 32878 ft | 455 kts | 37° |
| 2026-04-30 05:08 | -3.00329 | 116.92723 | 32877 ft | 455 kts | 37° |
| 2026-04-30 05:09 | -2.95277 | 116.96536 | 32876 ft | 455 kts | 38° |
| 2026-04-30 05:09 | -2.90224 | 117.00350 | 32876 ft | 455 kts | 38° |
| 2026-04-30 05:10 | -2.85172 | 117.04162 | 32875 ft | 455 kts | 38° |
| 2026-04-30 05:10 | -2.80116 | 117.07977 | 32878 ft | 455 kts | 38° |
| 2026-04-30 05:11 | -2.75057 | 117.11794 | 32873 ft | 455 kts | 38° |
| 2026-04-30 05:11 | -2.70037 | 117.15582 | 32874 ft | 455 kts | 38° |
| 2026-04-30 05:12 | -2.64981 | 117.19395 | 32875 ft | 455 kts | 38° |
| 2026-04-30 05:12 | -2.59924 | 117.23210 | 32873 ft | 455 kts | 38° |
| 2026-04-30 05:13 | -2.54865 | 117.27025 | 32874 ft | 455 kts | 38° |
| 2026-04-30 05:13 | -2.49806 | 117.30840 | 32874 ft | 455 kts | 38° |
| 2026-04-30 05:14 | -2.44750 | 117.34652 | 32874 ft | 455 kts | 38° |
| 2026-04-30 05:14 | -2.39689 | 117.38468 | 32874 ft | 455 kts | 38° |
| 2026-04-30 05:15 | -2.34629 | 117.42282 | 32874 ft | 455 kts | 38° |
| 2026-04-30 05:15 | -2.29571 | 117.46095 | 32873 ft | 455 kts | 38° |
| 2026-04-30 05:16 | -2.24514 | 117.49907 | 32871 ft | 455 kts | 38° |
| 2026-04-30 05:16 | -2.19460 | 117.53716 | 32871 ft | 455 kts | 38° |
| 2026-04-30 05:17 | -2.14409 | 117.57522 | 32872 ft | 454 kts | 38° |
| 2026-04-30 05:17 | -2.09362 | 117.61326 | 32872 ft | 454 kts | 38° |
| 2026-04-30 05:18 | -2.04325 | 117.65121 | 32873 ft | 453 kts | 38° |
| 2026-04-30 05:18 | -1.99292 | 117.68913 | 32867 ft | 453 kts | 38° |
| 2026-04-30 05:19 | -1.94273 | 117.72694 | 32868 ft | 452 kts | 38° |
| 2026-04-30 05:19 | -1.89259 | 117.76472 | 32864 ft | 451 kts | 38° |
| 2026-04-30 05:20 | -1.84253 | 117.80242 | 32861 ft | 450 kts | 38° |
| 2026-04-30 05:20 | -1.79252 | 117.84009 | 32863 ft | 450 kts | 38° |
| 2026-04-30 05:21 | -1.74263 | 117.87766 | 32863 ft | 449 kts | 38° |
| 2026-04-30 05:21 | -1.69269 | 117.91527 | 32866 ft | 449 kts | 38° |
| 2026-04-30 05:22 | -1.64279 | 117.95285 | 32862 ft | 449 kts | 38° |
| 2026-04-30 05:22 | -1.59287 | 117.99044 | 32865 ft | 450 kts | 38° |
| 2026-04-30 05:23 | -1.54287 | 118.02808 | 32867 ft | 450 kts | 38° |
| 2026-04-30 05:23 | -1.49284 | 118.06576 | 32869 ft | 451 kts | 38° |
| 2026-04-30 05:24 | -1.44309 | 118.10321 | 32856 ft | 451 kts | 38° |
| 2026-04-30 05:24 | -1.39292 | 118.14098 | 32858 ft | 451 kts | 38° |
| 2026-04-30 05:25 | -1.34281 | 118.17870 | 32845 ft | 447 kts | 38° |
| 2026-04-30 05:25 | -1.29378 | 118.21560 | 32849 ft | 438 kts | 38° |
| 2026-04-30 05:26 | -1.24503 | 118.25230 | 32611 ft | 441 kts | 38° |
| 2026-04-30 05:26 | -1.22066 | 118.27064 | 32288 ft | 435 kts | 38° |
| 2026-04-30 05:26 | -1.19660 | 118.28875 | 31854 ft | 432 kts | 38° |
| 2026-04-30 05:27 | -1.17270 | 118.30674 | 31457 ft | 428 kts | 38° |
| 2026-04-30 05:27 | -1.14900 | 118.32457 | 31051 ft | 425 kts | 38° |
| 2026-04-30 05:27 | -1.12543 | 118.34231 | 30642 ft | 423 kts | 38° |
| 2026-04-30 05:27 | -1.10197 | 118.35997 | 30211 ft | 421 kts | 39° |
| 2026-04-30 05:28 | -1.07861 | 118.37756 | 29783 ft | 419 kts | 39° |
| 2026-04-30 05:28 | -1.05539 | 118.39504 | 29300 ft | 417 kts | 39° |
| 2026-04-30 05:28 | -1.03232 | 118.41241 | 28855 ft | 414 kts | 39° |
| 2026-04-30 05:28 | -1.00943 | 118.42964 | 28417 ft | 410 kts | 38° |
| 2026-04-30 05:29 | -0.98669 | 118.44676 | 27990 ft | 407 kts | 38° |
| 2026-04-30 05:29 | -0.96415 | 118.46372 | 27576 ft | 404 kts | 38° |
| 2026-04-30 05:29 | -0.94177 | 118.48056 | 27161 ft | 402 kts | 39° |
| 2026-04-30 05:29 | -0.92162 | 118.49956 | 26729 ft | 397 kts | 54° |
| 2026-04-30 05:30 | -0.90707 | 118.52266 | 26353 ft | 391 kts | 66° |
| 2026-04-30 05:30 | -0.89832 | 118.54815 | 25946 ft | 387 kts | 78° |
| 2026-04-30 05:30 | -0.89297 | 118.57440 | 25551 ft | 385 kts | 80° |
| 2026-04-30 05:30 | -0.88799 | 118.60064 | 25142 ft | 383 kts | 80° |
| 2026-04-30 05:31 | -0.88303 | 118.62673 | 24728 ft | 383 kts | 80° |
| 2026-04-30 05:31 | -0.87795 | 118.65278 | 24326 ft | 381 kts | 79° |
| 2026-04-30 05:31 | -0.87278 | 118.67876 | 23912 ft | 381 kts | 79° |
| 2026-04-30 05:31 | -0.86754 | 118.70468 | 23510 ft | 380 kts | 79° |
| 2026-04-30 05:32 | -0.86228 | 118.73053 | 23051 ft | 379 kts | 79° |
| 2026-04-30 05:32 | -0.85704 | 118.75625 | 22632 ft | 377 kts | 79° |
| 2026-04-30 05:32 | -0.85183 | 118.78183 | 22220 ft | 375 kts | 79° |
| 2026-04-30 05:32 | -0.84665 | 118.80727 | 21820 ft | 372 kts | 79° |
| 2026-04-30 05:33 | -0.84155 | 118.83241 | 21521 ft | 367 kts | 79° |
| 2026-04-30 05:33 | -0.83652 | 118.85727 | 21215 ft | 363 kts | 79° |
| 2026-04-30 05:33 | -0.83156 | 118.88187 | 20917 ft | 360 kts | 79° |
| 2026-04-30 05:33 | -0.82663 | 118.90632 | 20627 ft | 358 kts | 79° |
| 2026-04-30 05:34 | -0.82173 | 118.93061 | 20336 ft | 356 kts | 79° |
| 2026-04-30 05:34 | -0.81686 | 118.95478 | 20041 ft | 354 kts | 79° |
| 2026-04-30 05:34 | -0.81201 | 118.97880 | 19750 ft | 352 kts | 79° |
| 2026-04-30 05:34 | -0.80718 | 119.00274 | 19461 ft | 351 kts | 79° |
| 2026-04-30 05:35 | -0.80237 | 119.02656 | 19163 ft | 350 kts | 79° |
| 2026-04-30 05:35 | -0.79757 | 119.05034 | 18878 ft | 348 kts | 79° |
| 2026-04-30 05:35 | -0.79280 | 119.07401 | 18577 ft | 347 kts | 79° |
| 2026-04-30 05:35 | -0.78803 | 119.09761 | 18292 ft | 346 kts | 79° |
| 2026-04-30 05:36 | -0.78328 | 119.12116 | 17986 ft | 345 kts | 79° |
| 2026-04-30 05:36 | -0.77854 | 119.14462 | 17682 ft | 344 kts | 79° |
| 2026-04-30 05:36 | -0.77383 | 119.16798 | 17378 ft | 342 kts | 79° |
| 2026-04-30 05:36 | -0.76914 | 119.19122 | 17091 ft | 340 kts | 79° |
| 2026-04-30 05:37 | -0.76447 | 119.21431 | 16804 ft | 339 kts | 79° |
| 2026-04-30 05:37 | -0.75983 | 119.23733 | 16523 ft | 337 kts | 79° |
| 2026-04-30 05:37 | -0.75526 | 119.25994 | 16250 ft | 336 kts | 79° |
| 2026-04-30 05:37 | -0.75065 | 119.28277 | 15977 ft | 335 kts | 79° |
| 2026-04-30 05:38 | -0.74606 | 119.30551 | 15698 ft | 333 kts | 79° |
| 2026-04-30 05:38 | -0.74149 | 119.32818 | 15423 ft | 332 kts | 79° |
| 2026-04-30 05:38 | -0.73692 | 119.35080 | 15149 ft | 332 kts | 79° |
| 2026-04-30 05:38 | -0.73237 | 119.37334 | 14873 ft | 331 kts | 79° |
| 2026-04-30 05:39 | -0.72782 | 119.39590 | 14604 ft | 331 kts | 79° |
| 2026-04-30 05:39 | -0.72328 | 119.41839 | 14332 ft | 330 kts | 79° |
| 2026-04-30 05:39 | -0.71872 | 119.44091 | 14050 ft | 331 kts | 79° |
| 2026-04-30 05:39 | -0.71300 | 119.46316 | 13691 ft | 332 kts | 70° |
| 2026-04-30 05:40 | -0.70397 | 119.48440 | 13275 ft | 332 kts | 66° |
| 2026-04-30 05:40 | -0.69429 | 119.50530 | 12850 ft | 331 kts | 65° |
| 2026-04-30 05:40 | -0.68456 | 119.52611 | 12439 ft | 330 kts | 65° |
| 2026-04-30 05:40 | -0.67493 | 119.54689 | 12031 ft | 329 kts | 66° |
| 2026-04-30 05:41 | -0.66541 | 119.56767 | 11628 ft | 328 kts | 66° |
| 2026-04-30 05:41 | -0.65598 | 119.58841 | 11210 ft | 328 kts | 66° |
| 2026-04-30 05:41 | -0.64660 | 119.60914 | 10825 ft | 327 kts | 66° |
| 2026-04-30 05:41 | -0.63727 | 119.62983 | 10422 ft | 326 kts | 66° |
| 2026-04-30 05:42 | -0.62796 | 119.65050 | 10018 ft | 326 kts | 66° |
| 2026-04-30 05:42 | -0.61871 | 119.67107 | 9761 ft | 320 kts | 66° |
| 2026-04-30 05:42 | -0.60979 | 119.69089 | 9763 ft | 306 kts | 66° |
| 2026-04-30 05:42 | -0.60122 | 119.70993 | 9700 ft | 295 kts | 66° |
| 2026-04-30 05:43 | -0.59297 | 119.72827 | 9616 ft | 284 kts | 66° |
| 2026-04-30 05:43 | -0.58500 | 119.74597 | 9534 ft | 273 kts | 66° |
| 2026-04-30 05:43 | -0.57685 | 119.76254 | 9400 ft | 260 kts | 56° |
| 2026-04-30 05:43 | -0.56432 | 119.77515 | 9078 ft | 256 kts | 34° |
| 2026-04-30 05:44 | -0.54790 | 119.78191 | 8632 ft | 259 kts | 11° |
| 2026-04-30 05:44 | -0.52994 | 119.78208 | 8234 ft | 260 kts | 349° |
| 2026-04-30 05:44 | -0.51278 | 119.77618 | 8072 ft | 264 kts | 339° |
| 2026-04-30 05:44 | -0.49585 | 119.76857 | 8047 ft | 268 kts | 337° |
| 2026-04-30 05:45 | -0.47894 | 119.76082 | 8000 ft | 267 kts | 337° |
| 2026-04-30 05:45 | -0.46222 | 119.75309 | 7989 ft | 263 kts | 332° |
| 2026-04-30 05:45 | -0.44888 | 119.74096 | 7996 ft | 261 kts | 303° |
| 2026-04-30 05:45 | -0.44225 | 119.72405 | 7988 ft | 265 kts | 278° |
| 2026-04-30 05:46 | -0.44294 | 119.70588 | 7998 ft | 269 kts | 254° |
| 2026-04-30 05:46 | -0.45119 | 119.68932 | 7974 ft | 266 kts | 228° |
| 2026-04-30 05:46 | -0.46564 | 119.67824 | 7985 ft | 262 kts | 201° |
| 2026-04-30 05:46 | -0.48315 | 119.67466 | 7984 ft | 257 kts | 175° |
| 2026-04-30 05:47 | -0.50023 | 119.67879 | 7990 ft | 253 kts | 150° |
| 2026-04-30 05:47 | -0.51393 | 119.68947 | 7990 ft | 250 kts | 128° |
| 2026-04-30 05:47 | -0.52284 | 119.70424 | 7988 ft | 249 kts | 108° |
| 2026-04-30 05:47 | -0.52730 | 119.72089 | 7978 ft | 249 kts | 113° |
| 2026-04-30 05:48 | -0.53790 | 119.73441 | 8008 ft | 252 kts | 140° |
| 2026-04-30 05:48 | -0.55307 | 119.74453 | 8011 ft | 269 kts | 148° |
| 2026-04-30 05:48 | -0.56952 | 119.75409 | 8003 ft | 277 kts | 148° |
| 2026-04-30 05:48 | -0.58656 | 119.76320 | 7816 ft | 282 kts | 153° |
| 2026-04-30 05:49 | -0.60470 | 119.77126 | 7352 ft | 284 kts | 155° |
| 2026-04-30 05:49 | -0.62283 | 119.77895 | 6923 ft | 281 kts | 155° |
| 2026-04-30 05:49 | -0.64073 | 119.78660 | 6499 ft | 279 kts | 155° |
| 2026-04-30 05:49 | -0.65843 | 119.79428 | 6063 ft | 277 kts | 155° |
| 2026-04-30 05:50 | -0.67596 | 119.80198 | 5624 ft | 274 kts | 154° |
| 2026-04-30 05:50 | -0.68771 | 119.80718 | 5342 ft | 272 kts | 154° |
| 2026-04-30 05:50 | -0.70471 | 119.81472 | 4934 ft | 270 kts | 154° |
| 2026-04-30 05:50 | -0.72170 | 119.82225 | 4788 ft | 256 kts | 154° |
| 2026-04-30 05:51 | -0.74248 | 119.83145 | 4647 ft | 235 kts | 153° |
| 2026-04-30 05:51 | -0.75222 | 119.83577 | 4546 ft | 219 kts | 153° |
| 2026-04-30 05:51 | -0.76546 | 119.84164 | 4383 ft | 197 kts | 153° |
| 2026-04-30 05:51 | -0.77764 | 119.84706 | 4029 ft | 190 kts | 153° |
| 2026-04-30 05:52 | -0.78976 | 119.85245 | 3520 ft | 191 kts | 153° |
| 2026-04-30 05:52 | -0.80201 | 119.85789 | 3002 ft | 192 kts | 154° |
| 2026-04-30 05:52 | -0.81399 | 119.86322 | 2545 ft | 191 kts | 154° |
| 2026-04-30 05:52 | -0.82639 | 119.86873 | 2382 ft | 194 kts | 155° |
| 2026-04-30 05:53 | -0.83864 | 119.87384 | 2324 ft | 191 kts | 165° |
| 2026-04-30 05:53 | -0.85129 | 119.87294 | 2322 ft | 177 kts | 201° |
| 2026-04-30 05:53 | -0.86271 | 119.86843 | 2317 ft | 176 kts | 201° |
| 2026-04-30 05:53 | -0.87402 | 119.86404 | 2310 ft | 174 kts | 201° |
| 2026-04-30 05:54 | -0.88519 | 119.85975 | 2310 ft | 175 kts | 201° |
| 2026-04-30 05:54 | -0.89678 | 119.85552 | 2325 ft | 182 kts | 193° |
| 2026-04-30 05:54 | -0.90881 | 119.85728 | 2334 ft | 172 kts | 153° |
| 2026-04-30 05:54 | -0.91938 | 119.86203 | 2330 ft | 164 kts | 157° |
| 2026-04-30 05:55 | -0.92993 | 119.86630 | 2314 ft | 164 kts | 157° |
| 2026-04-30 05:55 | -0.94035 | 119.87074 | 2310 ft | 162 kts | 156° |
| 2026-04-30 05:55 | -0.95082 | 119.87533 | 2336 ft | 167 kts | 156° |
| 2026-04-30 05:55 | -0.96152 | 119.87983 | 2296 ft | 166 kts | 157° |
| 2026-04-30 05:56 | -0.97200 | 119.88446 | 2286 ft | 165 kts | 156° |
| 2026-04-30 05:56 | -0.98236 | 119.88982 | 2142 ft | 170 kts | 143° |
| 2026-04-30 05:56 | -0.98930 | 119.89907 | 1900 ft | 166 kts | 99° |
| 2026-04-30 05:56 | -0.98777 | 119.90989 | 1696 ft | 155 kts | 60° |
| 2026-04-30 05:57 | -0.98188 | 119.91850 | 1411 ft | 147 kts | 41° |
| 2026-04-30 05:57 | -0.97355 | 119.92385 | 1257 ft | 139 kts | 24° |
| 2026-04-30 05:57 | -0.96416 | 119.92708 | 1115 ft | 147 kts | 10° |
| 2026-04-30 05:57 | -0.95404 | 119.92585 | 955 ft | 151 kts | 340° |
| 2026-04-30 05:58 | -0.94460 | 119.92142 | 704 ft | 148 kts | 336° |
| 2026-04-30 05:58 | -0.93539 | 119.91718 | 557 ft | 144 kts | 337° |
| 2026-04-30 05:58 | -0.92619 | 119.91312 | 368 ft | 142 kts | 336° |
| 2026-04-30 05:58 | -0.91779 | 119.90936 | 310 ft | 114 kts | 336° |
| 2026-04-30 05:59 | -0.91245 | 119.90697 | 309 ft | 60 kts | 335° |
| 2026-04-30 05:59 | -0.90964 | 119.90573 | 306 ft | 33 kts | 336° |
| 2026-04-30 05:59 | -0.90789 | 119.90494 | 305 ft | 24 kts | 335° |
| 2026-04-30 05:59 | -0.90709 | 119.90452 | 310 ft | 5 kts | 311° |
| 2026-04-30 06:00 | -0.90693 | 119.90436 | 314 ft | 3 kts | 346° |
| 2026-04-30 06:00 | -0.90693 | 119.90453 | 313 ft | 3 kts | 136° |
| 2026-04-30 06:00 | -0.90719 | 119.90461 | 309 ft | 4 kts | 162° |
| 2026-04-30 06:00 | -0.90748 | 119.90472 | 308 ft | 5 kts | 158° |
| 2026-04-30 06:01 | -0.90787 | 119.90490 | 308 ft | 9 kts | 156° |
| 2026-04-30 06:01 | -0.90861 | 119.90524 | 306 ft | 15 kts | 155° |
| 2026-04-30 06:01 | -0.90973 | 119.90572 | 307 ft | 19 kts | 155° |
| 2026-04-30 06:01 | -0.91099 | 119.90630 | 311 ft | 20 kts | 155° |
| 2026-04-30 06:02 | -0.91222 | 119.90685 | 309 ft | 19 kts | 156° |
| 2026-04-30 06:02 | -0.91341 | 119.90739 | 309 ft | 18 kts | 156° |
| 2026-04-30 06:02 | -0.91456 | 119.90790 | 308 ft | 18 kts | 156° |
| 2026-04-30 06:02 | -0.91561 | 119.90837 | 309 ft | 13 kts | 154° |
| 2026-04-30 06:03 | -0.91627 | 119.90810 | 307 ft | 10 kts | 242° |
| 2026-04-30 06:03 | -0.91657 | 119.90748 | 304 ft | 10 kts | 246° |
| 2026-04-30 06:03 | -0.91705 | 119.90721 | 301 ft | 9 kts | 154° |
| 2026-04-30 06:03 | -0.91738 | 119.90733 | 301 ft | 3 kts | 174° |
| 2026-04-30 06:04 | -0.91752 | 119.90723 | 302 ft | 3 kts | 231° |
| 2026-04-30 06:04 | -0.91760 | 119.90707 | 302 ft | 3 kts | 248° |
| 2026-04-30 06:04 | -0.91763 | 119.90699 | 302 ft | 1 kts | 248° |
| 2026-04-30 06:05 | -0.91766 | 119.90691 | 303 ft | 0 kts | 248° |